Terminal Aerodrome Forecast
Issued by NWS

Home | Current Version | Previous Version | Text Only | Print | Product List | Glossary On
Versions: 1 2 3 4 5 6 7 8 9 10 11 12 13 14 15 16 17 18 19 20 21
000
FTAK31 PAJN 310100 AAA
TAFAPG
TAF AMD
PAPG 310151Z 3102/3124 06007KT P6SM VCSH BKN020 OVC035
     FM310600 00000KT 6SM -SHRA BR SCT015 OVC030
     FM311000 VRB02KT 4SM -SHRA BR BKN012 OVC025 PROB30 3111/3116
      2SM SHRA SCT008 OVC012
     FM311700 VRB03KT 6SM -RA BR SCT015 OVC025
     FM311900 10004KT 4SM -RA BR BKN015 OVC025
      AMD LTD TO CLD VIS AND WIND 3106/3115=

USA.gov is the U.S. government's official web portal to all federal, state and local government web resources and services.